Weather History for Walnut Ridge, AR

Change the Weather History Date:

Friday, August 10, 2012

  Actual Average Record
Temperature  
Mean Temperature 72 °F -  
Max Temperature 87 °F 85 °F 98 °F (2000)
Min Temperature 57 °F 67 °F 57 °F (2012)
Cooling Degree Days 7    
Growing Degree Days 22 (Base 50)    
Moisture  
Dew Point 62 °F    
Average Humidity 63    
Maximum Humidity 100    
Minimum Humidity 33    
Precipitation  
Precipitation 0.00 in - - ()
Sea Level Pressure  
Sea Level Pressure 29.88 in    
Wind  
Wind Speed 8 mph (NNE)    
Max Wind Speed 14 mph    
Max Gust Speed 16 mph    
Visibility 10 miles    
Events      
Averages and records for this station are not official NWS values.
T = Trace of Precipitation, MM = Missing Value Source: NWS Daily Summary

Daily Weather History Graph

Daily Weather History Graph

Search for Another Location

Airport:

Trip Planner

Search our weather history database for the weather conditions in past years. The results will help you decide how hot, cold, wet, or windy it might be!

Date:

Astronomy

Aug. 10, 2012 Rise Set
Actual Time 6:18 AM CDT 7:59 PM CDT
Civil Twilight 5:50 AM CDT 8:26 PM CDT
Nautical Twilight 5:17 AM CDT 8:59 PM CDT
Astronomical Twilight 4:42 AM CDT 9:34 PM CDT
Moon 12:09 AM CDT (8/10) 2:36 PM CDT (8/10)
Length of Visible Light 14h 35m
Length of Day
13h 40m
Last Quarter, 41% of the Moon is Illuminated
Aug 10
Last Quarter
Aug 17
New
Aug 24
First Quarter
Aug 31
Full
Sep 8
Last Quarter

Hourly Weather History & Observations

Time (CDT) Temp. Heat Index Dew Point Humidity Pressure Visibility Wind Dir Wind Speed Gust Speed Precip Events Conditions
12:15 AM 77.0 °F - 66.2 °F 69% 29.79 in 10.0 mi Calm Calm - N/A   Clear
12:35 AM 78.8 °F - 66.2 °F 65% 29.79 in 10.0 mi Calm Calm - N/A   Clear
12:55 AM 78.8 °F - 64.4 °F 61% 29.79 in 10.0 mi West 3.5 mph - N/A   Clear
1:15 AM 75.2 °F - 64.4 °F 69% 29.80 in 10.0 mi NNW 9.2 mph - N/A   Clear
1:35 AM 75.2 °F - 64.4 °F 69% 29.81 in 10.0 mi North 10.4 mph - N/A   Clear
1:55 AM 77.0 °F - 64.4 °F 65% 29.81 in 10.0 mi North 12.7 mph - N/A   Clear
2:15 AM 77.0 °F - 64.4 °F 65% 29.81 in 10.0 mi North 10.4 mph - N/A   Clear
2:35 AM 75.2 °F - 64.4 °F 69% 29.81 in 10.0 mi North 9.2 mph - N/A   Clear
2:55 AM 75.2 °F - 64.4 °F 69% 29.82 in 10.0 mi North 9.2 mph - N/A   Clear
3:15 AM 75.2 °F - 64.4 °F 69% 29.82 in 10.0 mi North 9.2 mph - N/A   Clear
3:35 AM 75.2 °F - 66.2 °F 73% 29.83 in 10.0 mi North 8.1 mph - N/A   Clear
3:55 AM 73.4 °F - 66.2 °F 78% 29.83 in 10.0 mi North 8.1 mph - N/A   Clear
4:15 AM 71.6 °F - 66.2 °F 83% 29.84 in 10.0 mi North 9.2 mph - N/A   Clear
4:35 AM 75.2 °F - 64.4 °F 69% 29.84 in 10.0 mi North 12.7 mph - N/A   Clear
4:55 AM 73.4 °F - 64.4 °F 73% 29.85 in 10.0 mi NNW 6.9 mph - N/A   Clear
5:15 AM 75.2 °F - 64.4 °F 69% 29.85 in 10.0 mi North 11.5 mph - N/A   Partly Cloudy
5:35 AM 73.4 °F - 62.6 °F 69% 29.85 in 10.0 mi North 9.2 mph - N/A   Partly Cloudy
5:55 AM 73.4 °F - 62.6 °F 69% 29.85 in 10.0 mi North 9.2 mph - N/A   Clear
6:15 AM 71.6 °F - 62.6 °F 73% 29.86 in 10.0 mi North 8.1 mph - N/A   Clear
6:35 AM 71.6 °F - 62.6 °F 73% 29.87 in 10.0 mi North 8.1 mph - N/A   Clear
6:55 AM 71.6 °F - 64.4 °F 78% 29.87 in 10.0 mi NNW 8.1 mph - N/A   Partly Cloudy
7:15 AM 71.6 °F - 64.4 °F 78% 29.87 in 10.0 mi North 9.2 mph - N/A   Partly Cloudy
7:35 AM 73.4 °F - 64.4 °F 73% 29.88 in 10.0 mi North 8.1 mph - N/A   Clear
7:55 AM 75.2 °F - 64.4 °F 69% 29.89 in 10.0 mi North 6.9 mph - N/A   Clear
8:15 AM 75.2 °F - 64.4 °F 69% 29.89 in 10.0 mi North 9.2 mph - N/A   Clear
8:35 AM 75.2 °F - 64.4 °F 69% 29.90 in 10.0 mi North 10.4 mph - N/A   Clear
8:55 AM 78.8 °F - 64.4 °F 61% 29.90 in 10.0 mi NNE 8.1 mph - N/A   Clear
9:15 AM 78.8 °F - 62.6 °F 57% 29.91 in 9.0 mi North 9.2 mph 16.1 mph N/A   Clear
9:35 AM 78.8 °F - 64.4 °F 61% 29.90 in 6.0 mi NNE 10.4 mph - N/A   Clear
9:55 AM 80.6 °F 81.8 °F 62.6 °F 54% 29.91 in 3.0 mi NNE 11.5 mph - N/A   Clear
10:15 AM 80.6 °F 81.8 °F 62.6 °F 54% 29.91 in 10.0 mi NNE 11.5 mph - N/A   Clear
10:55 AM 82.4 °F 83.4 °F 62.6 °F 51% 29.90 in 8.0 mi NNE 11.5 mph - N/A   Clear
11:15 AM 84.2 °F 85.0 °F 62.6 °F 48% 29.90 in 7.0 mi NNE 11.5 mph - N/A   Clear
11:35 AM 84.2 °F 84.4 °F 60.8 °F 45% 29.90 in 8.0 mi NNE 9.2 mph - N/A   Clear
11:55 AM 84.2 °F 84.4 °F 60.8 °F 45% 29.90 in 8.0 mi North 9.2 mph - N/A   Clear
12:15 PM 84.2 °F 84.4 °F 60.8 °F 45% 29.90 in 10.0 mi North 6.9 mph - N/A   Clear
12:35 PM 84.2 °F 83.5 °F 57.2 °F 40% 29.89 in 10.0 mi NE 9.2 mph 16.1 mph N/A   Clear
12:55 PM 84.2 °F 83.0 °F 55.4 °F 37% 29.89 in 10.0 mi NNE 11.5 mph - N/A   Clear
1:15 PM 86.0 °F 84.9 °F 57.2 °F 37% 29.89 in 9.0 mi NNE 8.1 mph - N/A   Clear
1:35 PM 86.0 °F 84.5 °F 55.4 °F 35% 29.88 in 10.0 mi NE 10.4 mph - N/A   Clear
1:55 PM 87.8 °F 86.1 °F 55.4 °F 33% 29.88 in 9.0 mi NNE 12.7 mph - N/A   Clear
2:15 PM 86.0 °F 85.4 °F 59.0 °F 40% 29.87 in 10.0 mi ENE 11.5 mph - N/A   Clear
2:35 PM 84.2 °F 83.8 °F 59.0 °F 42% 29.87 in 10.0 mi NE 10.4 mph - N/A   Clear
2:55 PM 86.0 °F 84.9 °F 57.2 °F 37% 29.87 in 10.0 mi ENE 10.4 mph - N/A   Clear
3:15 PM 86.0 °F 85.4 °F 59.0 °F 40% 29.87 in 10.0 mi East 13.8 mph - N/A   Scattered Clouds
3:35 PM 86.0 °F 85.4 °F 59.0 °F 40% 29.87 in 10.0 mi ENE 9.2 mph 16.1 mph N/A   Scattered Clouds
3:55 PM 87.8 °F 87.6 °F 60.8 °F 40% 29.87 in 10.0 mi NE 11.5 mph - N/A   Partly Cloudy
4:15 PM 84.2 °F 83.8 °F 59.0 °F 42% 29.86 in 10.0 mi ENE 10.4 mph - N/A   Partly Cloudy
4:35 PM 84.2 °F 83.8 °F 59.0 °F 42% 29.86 in 10.0 mi ENE 11.5 mph - N/A   Clear
4:55 PM 84.2 °F 84.4 °F 60.8 °F 45% 29.86 in 10.0 mi ENE 10.4 mph - N/A   Clear
5:15 PM 84.2 °F 84.4 °F 60.8 °F 45% 29.85 in 10.0 mi East 10.4 mph - N/A   Clear
5:35 PM 82.4 °F 82.9 °F 60.8 °F 48% 29.85 in 10.0 mi East 9.2 mph - N/A   Clear
5:55 PM 82.4 °F 83.4 °F 62.6 °F 51% 29.86 in 10.0 mi ENE 8.1 mph - N/A   Clear
6:15 PM 82.4 °F 82.9 °F 60.8 °F 48% 29.87 in 10.0 mi NE 10.4 mph - N/A   Clear
6:35 PM 80.6 °F 81.5 °F 60.8 °F 51% 29.87 in 10.0 mi ENE 11.5 mph - N/A   Partly Cloudy
6:55 PM 78.8 °F - 60.8 °F 54% 29.88 in 10.0 mi NE 10.4 mph - N/A   Partly Cloudy
7:15 PM 77.0 °F - 60.8 °F 57% 29.88 in 10.0 mi ENE 8.1 mph - N/A   Clear
7:35 PM 75.2 °F - 62.6 °F 65% 29.89 in 10.0 mi ENE 9.2 mph - N/A   Clear
8:15 PM 71.6 °F - 60.8 °F 69% 29.91 in 10.0 mi NE 4.6 mph - N/A   Clear
8:35 PM 71.6 °F - 62.6 °F 73% 29.92 in 10.0 mi NE 5.8 mph - N/A   Clear
8:55 PM 60.8 °F - 60.8 °F 100% 29.92 in 10.0 mi NE 6.9 mph - N/A   Clear
9:35 PM 60.8 °F - 60.8 °F 100% 29.94 in 10.0 mi NE 5.8 mph - N/A   Clear
9:55 PM 60.8 °F - 60.8 °F 100% 29.95 in 10.0 mi NE 6.9 mph - N/A   Clear
10:15 PM 62.6 °F - 60.8 °F 94% 29.96 in 10.0 mi NE 6.9 mph - N/A   Clear
10:35 PM 60.8 °F - 59.0 °F 94% 29.96 in 10.0 mi NE 8.1 mph - N/A   Clear
10:55 PM 60.8 °F - 59.0 °F 94% 29.97 in 10.0 mi NE 6.9 mph - N/A   Clear
11:15 PM 57.2 °F - 57.2 °F 100% 29.98 in 10.0 mi NE 5.8 mph - N/A   Clear
11:35 PM 57.2 °F - 57.2 °F 100% 29.98 in 10.0 mi East 4.6 mph - N/A   Clear
11:55 PM 59.0 °F - 59.0 °F 100% 29.98 in 10.0 mi NNE 4.6 mph - N/A   Clear